Time;durP1;ratioP1;P1;durP2;ratioP2;P2;SDS_P1;SDS_P2;PMS_P1;PMS_P2;Temp;Humidity;BMP_temperature;BMP_pressure;BME280_temperature;BME280_humidity;BME280_pressure;Samples;Min_cycle;Max_cycle;Signal;HPM_P1;HPM_P2
2021/03/29 00:02:09;;;;;;;9.82;3.65;;;;;;;12.13;53.09;100808.91;5056084;28;20063;-86
2021/03/29 00:04:36;;;;;;;14.02;3.35;;;;;;;12.10;53.15;100802.00;5073647;28;20052;-86
2021/03/29 00:07:05;;;;;;;11.02;3.90;;;;;;;12.08;53.21;100803.00;5056065;28;20083;-86
2021/03/29 00:09:34;;;;;;;11.27;3.42;;;;;;;12.07;53.00;100799.50;5055896;28;20118;-86
2021/03/29 00:12:06;;;;;;;7.13;3.42;;;;;;;12.05;53.24;100803.09;5056040;28;20075;-86
2021/03/29 00:14:33;;;;;;;12.13;2.97;;;;;;;12.07;53.18;100794.22;5073503;28;20071;-86
2021/03/29 00:17:00;;;;;;;9.05;3.40;;;;;;;12.05;53.05;100787.28;5056031;28;20052;-86
2021/03/29 00:19:34;;;;;;;10.77;3.20;;;;;;;12.02;53.15;100796.19;5073353;28;20060;-87
2021/03/29 00:22:01;;;;;;;12.55;3.38;;;;;;;12.02;53.00;100783.00;5055821;28;20048;-86
2021/03/29 00:24:29;;;;;;;8.20;3.42;;;;;;;12.01;53.16;100790.97;5073300;28;20447;-86
2021/03/29 00:26:56;;;;;;;12.90;3.90;;;;;;;11.99;53.23;100793.69;5055528;28;20048;-86
2021/03/29 00:29:22;;;;;;;8.60;3.22;;;;;;;11.96;53.23;100784.13;5055878;28;20140;-86
2021/03/29 00:31:49;;;;;;;9.90;3.50;;;;;;;11.95;53.23;100784.19;5073370;28;20055;-86
2021/03/29 00:34:16;;;;;;;13.52;3.80;;;;;;;11.94;53.22;100779.84;5073135;28;20052;-86
2021/03/29 00:36:43;;;;;;;13.93;3.67;;;;;;;11.92;53.23;100787.00;5073398;28;20045;-86
2021/03/29 00:39:11;;;;;;;14.05;4.00;;;;;;;11.91;53.20;100778.22;5073311;28;20061;-86
2021/03/29 00:41:38;;;;;;;9.52;3.35;;;;;;;11.91;53.15;100774.72;5073443;28;20056;-86
2021/03/29 00:44:05;;;;;;;11.50;3.47;;;;;;;11.91;53.36;100779.97;5055226;28;20045;-86
2021/03/29 00:46:32;;;;;;;12.95;3.67;;;;;;;11.91;53.43;100779.97;5073117;28;20052;-86
2021/03/29 00:48:59;;;;;;;11.40;3.33;;;;;;;11.90;53.26;100786.19;5072974;28;20052;-86
2021/03/29 00:51:30;;;;;;;10.57;3.55;;;;;;;11.89;53.31;100774.78;5073330;28;20044;-86
2021/03/29 00:53:58;;;;;;;9.20;3.60;;;;;;;11.88;53.21;100772.22;5055259;28;20126;-85
2021/03/29 00:56:26;;;;;;;10.35;3.35;;;;;;;11.85;53.34;100781.97;5073260;28;20056;-86
2021/03/29 00:58:54;;;;;;;13.13;3.45;;;;;;;11.85;53.51;100784.63;5055436;28;20059;-86
2021/03/29 01:01:25;;;;;;;9.15;3.10;;;;;;;11.83;53.63;100782.97;5073092;28;20049;-86
2021/03/29 01:03:58;;;;;;;8.98;3.63;;;;;;;11.82;53.51;100779.47;5072620;28;20382;-86
2021/03/29 01:06:29;;;;;;;9.52;3.28;;;;;;;11.83;53.18;100780.34;5072964;28;20060;-86
2021/03/29 01:09:05;;;;;;;12.93;3.78;;;;;;;11.83;53.54;100775.06;5055164;28;20494;-86
2021/03/29 01:11:35;;;;;;;11.05;3.90;;;;;;;11.83;53.61;100775.06;5058207;28;20131;-86
2021/03/29 01:14:06;;;;;;;14.20;4.00;;;;;;;11.84;53.61;100763.59;5059262;28;20051;-86
2021/03/29 01:16:38;;;;;;;9.93;3.33;;;;;;;11.85;53.46;100760.88;5059193;28;20052;-86
2021/03/29 01:19:24;;;;;;;9.93;3.30;;;;;;;11.85;53.49;100752.13;5058976;28;20048;-86
2021/03/29 01:22:03;;;;;;;13.02;3.80;;;;;;;11.81;53.59;100748.75;5059254;28;20051;-86
2021/03/29 01:24:41;;;;;;;16.02;3.92;;;;;;;11.81;53.54;100758.47;5076391;28;20045;-86
2021/03/29 01:27:08;;;;;;;14.07;3.53;;;;;;;11.82;53.51;100768.09;5059013;28;20055;-86
2021/03/29 01:29:36;;;;;;;11.27;3.70;;;;;;;11.79;53.50;100770.84;5059073;28;20051;-86
2021/03/29 01:32:05;;;;;;;13.32;4.60;;;;;;;11.77;53.70;100764.81;5076704;28;20071;-85
2021/03/29 01:34:35;;;;;;;16.75;4.22;;;;;;;11.75;53.82;100772.78;5076402;28;20045;-85
2021/03/29 01:37:03;;;;;;;13.80;4.05;;;;;;;11.74;53.71;100763.19;5059364;28;20401;-86
2021/03/29 01:39:30;;;;;;;15.90;4.13;;;;;;;11.73;53.72;100770.22;5076372;28;20089;-85
2021/03/29 01:41:57;;;;;;;14.20;4.05;;;;;;;11.73;53.87;100769.34;5058547;28;20063;-86
2021/03/29 01:44:25;;;;;;;13.95;3.67;;;;;;;11.72;54.07;100762.38;5058315;28;20488;-86
2021/03/29 01:46:52;;;;;;;12.13;4.07;;;;;;;11.72;54.03;100768.50;5058353;28;20049;-86
2021/03/29 01:49:20;;;;;;;14.38;4.07;;;;;;;11.70;54.37;100767.72;5058697;28;20052;-86
2021/03/29 01:51:46;;;;;;;13.07;4.28;;;;;;;11.70;53.98;100765.06;5058649;28;20052;-86
2021/03/29 01:54:14;;;;;;;13.15;4.63;;;;;;;11.71;54.21;100765.94;5076044;28;20412;-86
2021/03/29 01:56:40;;;;;;;12.68;4.30;;;;;;;11.72;53.97;100767.66;5058552;28;20049;-86
2021/03/29 01:59:06;;;;;;;9.93;3.70;;;;;;;11.72;54.02;100760.59;5058472;28;20049;-86
2021/03/29 02:01:33;;;;;;;11.63;4.00;;;;;;;11.74;53.95;100771.09;5075992;28;20048;-86
2021/03/29 02:03:59;;;;;;;14.98;4.93;;;;;;;11.73;54.03;100780.78;5075829;28;20052;-86
2021/03/29 02:06:26;;;;;;;13.65;4.75;;;;;;;11.72;53.97;100773.78;5058166;28;20060;-87
2021/03/29 02:08:53;;;;;;;14.70;4.90;;;;;;;11.70;54.20;100780.06;5058195;28;20052;-86
2021/03/29 02:11:21;;;;;;;13.52;5.13;;;;;;;11.70;54.01;100780.91;5058055;28;20052;-86
2021/03/29 02:13:50;;;;;;;18.40;5.07;;;;;;;11.69;54.12;100780.97;5057842;28;20059;-86
2021/03/29 02:16:17;;;;;;;15.77;4.85;;;;;;;11.70;54.01;100780.06;5075632;28;20080;-86
2021/03/29 02:18:51;;;;;;;11.32;4.47;;;;;;;11.70;54.15;100769.50;5057889;28;20489;-86
2021/03/29 02:21:21;;;;;;;15.15;5.35;;;;;;;11.69;54.11;100766.00;5075585;28;20064;-86
2021/03/29 02:23:49;;;;;;;19.27;4.80;;;;;;;11.70;54.30;100766.88;5057053;28;20059;-86
2021/03/29 02:26:20;;;;;;;18.15;5.32;;;;;;;11.69;54.42;100759.88;5057912;28;20049;-86
2021/03/29 02:28:48;;;;;;;20.85;5.93;;;;;;;11.70;54.31;100754.53;5075768;28;20048;-86
2021/03/29 02:31:16;;;;;;;18.45;5.40;;;;;;;11.72;54.08;100757.97;5057727;28;20052;-86
2021/03/29 02:33:43;;;;;;;16.48;5.07;;;;;;;11.72;54.12;100760.59;5057672;28;20056;-86
2021/03/29 02:36:10;;;;;;;14.93;5.35;;;;;;;11.73;54.30;100764.94;5075414;28;20059;-84
2021/03/29 02:38:36;;;;;;;13.88;5.20;;;;;;;11.76;54.27;100763.94;5057560;28;20044;-85
2021/03/29 02:41:04;;;;;;;17.73;5.38;;;;;;;11.76;54.11;100771.84;5057727;28;20045;-85
2021/03/29 02:43:31;;;;;;;15.20;5.43;;;;;;;11.76;54.19;100763.94;5057468;28;20112;-85
2021/03/29 02:46:08;;;;;;;12.30;5.40;;;;;;;11.75;54.14;100770.16;5074909;28;20060;-85
2021/03/29 02:48:38;;;;;;;15.02;5.35;;;;;;;11.78;53.99;100763.88;5056704;28;20044;-86
2021/03/29 02:51:08;;;;;;;17.80;5.68;;;;;;;11.78;53.85;100756.81;5056500;28;20071;-86
2021/03/29 02:53:36;;;;;;;16.25;5.72;;;;;;;11.76;53.89;100763.94;5057443;28;20044;-85
2021/03/29 02:56:07;;;;;;;14.40;4.97;;;;;;;11.74;53.77;100765.81;5074902;28;20086;-85
2021/03/29 02:58:37;;;;;;;9.77;4.63;;;;;;;11.73;53.80;100770.22;5057416;28;20130;-84
2021/03/29 03:01:08;;;;;;;16.13;5.10;;;;;;;11.72;53.68;100772.91;5057087;28;20048;-85
2021/03/29 03:03:37;;;;;;;22.20;5.95;;;;;;;11.68;53.86;100763.44;5057357;28;20048;-85
2021/03/29 03:06:04;;;;;;;12.48;4.55;;;;;;;11.67;53.64;100772.28;5075074;28;20063;-85
2021/03/29 03:08:33;;;;;;;15.07;5.07;;;;;;;11.62;53.79;100759.28;5057283;28;20044;-84
2021/03/29 03:11:00;;;;;;;15.35;4.65;;;;;;;11.60;53.45;100766.44;5056992;28;20053;-84
2021/03/29 03:13:28;;;;;;;17.77;5.38;;;;;;;11.58;53.67;100763.00;5057112;28;20051;-84
2021/03/29 03:15:54;;;;;;;17.13;5.47;;;;;;;11.54;53.68;100759.66;5056905;28;20413;-85
2021/03/29 03:18:20;;;;;;;12.25;5.00;;;;;;;11.50;53.75;100758.06;5057070;28;20531;-84
2021/03/29 03:20:46;;;;;;;13.07;5.35;;;;;;;11.47;53.81;100748.53;5074919;28;20052;-85
2021/03/29 03:23:17;;;;;;;12.13;4.93;;;;;;;11.43;53.82;100756.63;5057384;28;20098;-84
2021/03/29 03:25:47;;;;;;;15.25;4.97;;;;;;;11.42;53.75;100754.91;5056577;28;20173;-85
2021/03/29 03:28:16;;;;;;;18.05;4.90;;;;;;;11.40;53.89;100762.06;5056791;28;20056;-84
2021/03/29 03:30:45;;;;;;;14.18;4.60;;;;;;;11.37;53.89;100755.13;5056982;28;20045;-84
2021/03/29 03:33:13;;;;;;;15.80;5.18;;;;;;;11.37;53.89;100762.19;5074146;28;20044;-84
2021/03/29 03:35:41;;;;;;;13.88;4.75;;;;;;;11.37;53.95;100756.91;5055735;28;20500;-85
2021/03/29 03:38:18;;;;;;;15.80;4.35;;;;;;;11.33;53.97;100754.41;5056673;28;20048;-84
2021/03/29 03:40:49;;;;;;;17.17;4.93;;;;;;;11.33;53.94;100754.41;5056640;28;20083;-84
2021/03/29 03:43:19;;;;;;;12.00;4.63;;;;;;;11.30;53.65;100761.59;5056309;28;20055;-85
2021/03/29 03:45:49;;;;;;;16.27;4.43;;;;;;;11.29;54.12;100750.19;5096995;23;20041;-85
2021/03/29 03:48:18;;;;;;;11.73;4.07;;;;;;;11.31;53.72;100758.03;5074338;28;20048;-86
2021/03/29 03:50:48;;;;;;;10.40;4.53;;;;;;;11.28;53.78;100756.38;5073029;28;20056;-85
2021/03/29 03:53:16;;;;;;;16.80;5.13;;;;;;;11.30;53.88;100754.56;5072995;28;20053;-85
2021/03/29 03:55:43;;;;;;;16.02;4.53;;;;;;;11.29;53.76;100752.81;5073647;28;20143;-86
2021/03/29 03:58:14;;;;;;;11.52;4.35;;;;;;;11.26;53.82;100758.25;5073144;28;20048;-85
2021/03/29 04:00:40;;;;;;;15.30;4.55;;;;;;;11.26;53.87;100754.75;5072756;28;20079;-85
2021/03/29 04:03:06;;;;;;;13.38;4.47;;;;;;;11.25;53.94;100751.25;5073865;28;20059;-85
2021/03/29 04:05:32;;;;;;;14.88;4.85;;;;;;;11.25;54.10;100761.78;5072290;28;20056;-86
2021/03/29 04:08:19;;;;;;;19.10;4.78;;;;;;;11.23;53.81;100757.50;5073506;28;20117;-86
2021/03/29 04:10:54;;;;;;;13.90;4.45;;;;;;;11.19;53.88;100746.25;5072627;28;20052;-85
2021/03/29 04:13:26;;;;;;;11.20;3.80;;;;;;;11.17;53.87;100750.72;5072697;28;20048;-84
2021/03/29 04:15:58;;;;;;;15.10;4.07;;;;;;;11.14;53.83;100749.06;5072484;28;20060;-85
2021/03/29 04:18:25;;;;;;;11.70;3.92;;;;;;;11.12;53.83;100752.69;5072588;28;20048;-85
2021/03/29 04:20:52;;;;;;;14.23;4.78;;;;;;;11.06;53.80;100744.16;5073900;28;20055;-85
2021/03/29 04:23:19;;;;;;;14.02;4.45;;;;;;;11.04;54.01;100742.50;5072547;28;20044;-86
2021/03/29 04:25:46;;;;;;;12.98;4.45;;;;;;;11.02;53.97;100739.94;5072182;28;20052;-85
2021/03/29 04:28:13;;;;;;;12.05;5.10;;;;;;;11.02;53.78;100744.34;5073520;28;20044;-84
2021/03/29 04:30:39;;;;;;;12.25;3.80;;;;;;;11.01;53.91;100753.16;5072508;28;20063;-85
2021/03/29 04:33:06;;;;;;;12.68;4.05;;;;;;;10.99;53.93;100753.22;5072253;28;20042;-87
2021/03/29 04:35:33;;;;;;;10.40;4.03;;;;;;;10.99;54.13;100753.22;5073134;28;20055;-86
2021/03/29 04:37:59;;;;;;;11.43;3.92;;;;;;;10.98;53.97;100753.31;5072398;28;20053;-86
2021/03/29 04:40:27;;;;;;;10.43;3.95;;;;;;;10.98;53.88;100750.69;5072191;28;20056;-86
2021/03/29 04:42:54;;;;;;;11.50;4.15;;;;;;;10.97;53.88;100757.72;5072213;28;20063;-86
2021/03/29 04:45:21;;;;;;;14.45;3.42;;;;;;;10.97;53.85;100770.88;5072726;28;20059;-85
2021/03/29 04:47:47;;;;;;;14.43;3.90;;;;;;;10.98;53.72;100777.03;5073384;28;20082;-86
2021/03/29 04:50:18;;;;;;;13.15;4.50;;;;;;;10.97;53.76;100776.16;5072412;28;20494;-85
2021/03/29 04:52:44;;;;;;;11.00;3.58;;;;;;;10.96;53.68;100782.34;5072374;28;20409;-85
2021/03/29 04:55:12;;;;;;;17.15;4.85;;;;;;;10.93;53.62;100771.94;5071863;28;20056;-85
2021/03/29 04:57:39;;;;;;;13.20;3.80;;;;;;;10.96;53.81;100774.44;5073383;28;20055;-85
2021/03/29 05:00:06;;;;;;;9.95;3.70;;;;;;;10.95;53.77;100776.22;5073340;28;20049;-85
2021/03/29 05:02:33;;;;;;;15.15;4.05;;;;;;;10.95;53.75;100775.34;5073262;28;20059;-86
2021/03/29 05:04:59;;;;;;;11.90;3.63;;;;;;;10.95;53.75;100773.59;5071708;28;20123;-86
2021/03/29 05:07:25;;;;;;;17.00;4.38;;;;;;;10.94;53.77;100771.88;5071975;28;20063;-86
2021/03/29 05:09:51;;;;;;;15.35;4.68;;;;;;;10.95;53.62;100784.13;5073216;28;20056;-85
2021/03/29 05:12:22;;;;;;;14.43;4.53;;;;;;;10.94;53.74;100777.16;5073178;28;20079;-85
2021/03/29 05:14:49;;;;;;;12.80;4.53;;;;;;;10.94;53.97;100786.81;5071841;28;20041;-84
2021/03/29 05:17:16;;;;;;;13.38;3.90;;;;;;;10.94;53.97;100784.19;5072980;28;20052;-85
2021/03/29 05:19:42;;;;;;;13.50;4.00;;;;;;;10.94;54.11;100794.72;5071954;28;20056;-86
2021/03/29 05:22:09;;;;;;;12.88;4.00;;;;;;;10.92;53.98;100773.69;5073186;28;20055;-86
2021/03/29 05:24:39;;;;;;;9.73;3.50;;;;;;;10.93;54.25;100764.03;5072624;28;20044;-86
2021/03/29 05:27:06;;;;;;;12.95;3.78;;;;;;;10.93;54.10;100771.94;5072848;28;20063;-86
2021/03/29 05:29:52;;;;;;;12.43;3.97;;;;;;;10.93;54.19;100775.44;5071912;28;20055;-86
2021/03/29 05:32:26;;;;;;;14.38;3.83;;;;;;;10.93;54.00;100774.56;5071846;28;20055;-85
2021/03/29 05:34:55;;;;;;;9.65;3.38;;;;;;;10.97;54.01;100778.78;5072478;28;20404;-83
2021/03/29 05:37:22;;;;;;;13.13;3.72;;;;;;;10.99;53.91;100776.09;5072796;28;20057;-86
2021/03/29 05:39:50;;;;;;;14.77;3.90;;;;;;;10.97;54.27;100780.56;5071987;28;20049;-86
2021/03/29 05:42:18;;;;;;;10.50;3.78;;;;;;;10.99;54.11;100774.31;5072826;28;20420;-86
2021/03/29 05:44:46;;;;;;;12.50;3.88;;;;;;;11.00;54.07;100783.94;5071389;28;20052;-85
2021/03/29 05:47:15;;;;;;;10.93;3.75;;;;;;;11.03;54.26;100780.31;5072701;28;20102;-87
2021/03/29 05:49:41;;;;;;;11.20;3.60;;;;;;;11.06;54.18;100793.34;5072920;28;20481;-87
2021/03/29 05:52:08;;;;;;;14.70;4.25;;;;;;;11.10;54.38;100794.09;5073017;28;20053;-85
2021/03/29 05:54:34;;;;;;;13.15;3.33;;;;;;;11.12;54.19;100808.91;5072792;28;20071;-86
2021/03/29 05:57:00;;;;;;;12.43;3.50;;;;;;;11.15;54.13;100803.50;5071817;28;20089;-88
2021/03/29 05:59:34;;;;;;;13.07;3.88;;;;;;;11.18;54.00;100799.88;5075347;28;20071;-86
2021/03/29 06:02:01;;;;;;;8.82;3.25;;;;;;;11.21;54.37;100805.00;5076432;28;20049;-85
2021/03/29 06:04:44;;;;;;;11.80;3.45;;;;;;;11.18;54.37;100794.63;5074753;28;20048;-86
2021/03/29 06:07:12;;;;;;;11.48;3.85;;;;;;;11.28;54.60;100800.31;5074921;28;20076;-87
2021/03/29 06:09:38;;;;;;;8.60;3.25;;;;;;;11.31;54.40;100800.19;5075107;28;20074;-84
2021/03/29 06:12:05;;;;;;;11.40;3.80;;;;;;;11.33;54.35;100793.94;5075989;28;20076;-84
2021/03/29 06:14:34;;;;;;;11.55;3.38;;;;;;;11.36;54.37;100798.22;5075778;28;20063;-85
2021/03/29 06:17:10;;;;;;;16.48;3.75;;;;;;;11.37;54.34;100792.03;5076002;28;20055;-84
2021/03/29 06:19:43;;;;;;;11.68;3.75;;;;;;;11.41;54.36;100804.16;5075735;28;20059;-85
2021/03/29 06:22:18;;;;;;;7.95;3.08;;;;;;;11.43;54.46;100804.06;5074838;28;20057;-84
2021/03/29 06:25:21;;;;;;;9.38;3.10;;;;;;;11.45;54.83;100820.69;5074297;28;20045;-84
2021/03/29 06:27:52;;;;;;;10.88;3.78;;;;;;;11.52;54.71;100814.25;5017394;28;20049;-84
2021/03/29 06:30:31;;;;;;;17.42;3.55;;;;;;;11.55;54.79;100819.38;5068928;28;20060;-85
2021/03/29 06:33:17;;;;;;;9.70;3.22;;;;;;;11.58;55.28;100824.50;5074533;28;20117;-84
2021/03/29 06:35:54;;;;;;;12.68;3.10;;;;;;;11.65;54.78;100818.94;5074171;28;20052;-84
2021/03/29 06:38:27;;;;;;;10.10;2.88;;;;;;;11.70;54.62;100814.34;5074595;28;20055;-85
2021/03/29 06:40:59;;;;;;;13.82;3.70;;;;;;;11.75;54.45;100825.53;5074196;28;20147;-85
2021/03/29 06:43:35;;;;;;;11.00;3.67;;;;;;;11.80;54.93;100820.91;5074286;28;20044;-85
2021/03/29 06:46:06;;;;;;;8.20;2.72;;;;;;;11.91;54.73;100832.75;5074899;28;20084;-85
2021/03/29 06:48:38;;;;;;;9.93;3.08;;;;;;;11.94;55.12;100833.50;5074079;28;20052;-84
2021/03/29 06:51:21;;;;;;;15.57;3.92;;;;;;;12.00;55.14;100821.78;5074070;28;20048;-85
2021/03/29 06:54:01;;;;;;;17.38;3.20;;;;;;;12.06;54.83;100829.47;5075067;28;20051;-84
2021/03/29 06:56:29;;;;;;;10.82;3.00;;;;;;;12.15;54.41;100832.59;5074886;28;20052;-84
2021/03/29 06:59:11;;;;;;;12.13;3.40;;;;;;;12.19;54.60;100835.00;5073984;28;20052;-84
2021/03/29 07:01:52;;;;;;;8.38;2.58;;;;;;;12.28;54.65;100841.66;5073975;28;20060;-85
2021/03/29 07:04:27;;;;;;;8.93;3.22;;;;;;;12.35;54.51;100848.38;5074738;28;20051;-85
2021/03/29 07:06:54;;;;;;;11.40;3.05;;;;;;;12.45;54.24;100842.66;5073849;28;20048;-85
2021/03/29 07:09:21;;;;;;;8.32;2.67;;;;;;;12.55;54.30;100843.06;5073471;28;20052;-85
2021/03/29 07:11:48;;;;;;;12.35;3.55;;;;;;;12.60;54.02;100843.72;5074974;28;20386;-85
2021/03/29 07:14:19;;;;;;;6.80;2.72;;;;;;;12.64;54.03;100848.75;5073538;28;20044;-84
2021/03/29 07:16:46;;;;;;;6.78;2.92;;;;;;;12.72;54.10;100860.75;5074802;28;20044;-85
2021/03/29 07:19:13;;;;;;;9.40;2.70;;;;;;;12.79;53.98;100854.25;5074777;28;20052;-85
2021/03/29 07:21:41;;;;;;;12.07;3.03;;;;;;;12.84;54.15;100852.22;5074723;28;20404;-85
2021/03/29 07:24:10;;;;;;;10.88;3.67;;;;;;;12.87;53.53;100857.34;5074103;28;20489;-86
2021/03/29 07:26:48;;;;;;;12.82;3.22;;;;;;;12.92;53.55;100861.53;5074735;28;20439;-85
2021/03/29 07:29:16;;;;;;;12.95;3.17;;;;;;;12.98;53.75;100854.16;5074515;28;20052;-85
2021/03/29 07:31:43;;;;;;;14.15;2.92;;;;;;;13.04;53.56;100858.28;5074530;28;20045;-85
2021/03/29 07:34:10;;;;;;;9.50;2.70;;;;;;;13.08;53.33;100870.44;5072889;28;20049;-85
2021/03/29 07:36:45;;;;;;;6.65;2.80;;;;;;;13.10;53.03;100865.06;5073227;28;20056;-85
2021/03/29 07:39:18;;;;;;;13.35;3.05;;;;;;;13.13;52.99;100863.13;5074745;28;20052;-84
2021/03/29 07:41:45;;;;;;;12.68;3.10;;;;;;;13.20;53.07;100862.84;5074411;28;20055;-85
2021/03/29 07:44:19;;;;;;;9.88;3.40;;;;;;;13.22;52.88;100867.09;5072833;28;20049;-84
2021/03/29 07:46:48;;;;;;;9.48;2.95;;;;;;;13.29;53.30;100867.66;5074111;28;20045;-84
2021/03/29 07:49:43;;;;;;;9.60;2.97;;;;;;;13.29;53.08;100880.88;5073057;28;20060;-85
2021/03/29 07:52:29;;;;;;;10.60;3.33;;;;;;;13.34;52.20;100880.66;5074155;28;20048;-86
2021/03/29 07:54:57;;;;;;;9.23;2.80;;;;;;;13.42;52.49;100871.38;5072647;28;20055;-85
2021/03/29 07:57:45;;;;;;;6.78;2.55;;;;;;;13.46;52.94;100876.53;5074313;28;20056;-85
2021/03/29 08:00:25;;;;;;;11.00;3.10;;;;;;;13.49;52.39;100873.75;5072950;28;20048;-85
2021/03/29 08:02:53;;;;;;;14.45;2.65;;;;;;;13.59;52.23;100874.13;5073928;28;20056;-85
2021/03/29 08:05:38;;;;;;;9.43;3.22;;;;;;;13.60;52.30;100889.91;5072232;28;20059;-85
2021/03/29 08:08:26;;;;;;;10.68;2.72;;;;;;;13.67;51.25;100886.03;5073851;28;20052;-84
2021/03/29 08:10:59;;;;;;;10.13;3.10;;;;;;;13.74;52.04;100905.09;5072654;28;20102;-84
2021/03/29 08:13:42;;;;;;;8.30;2.73;;;;;;;13.78;51.32;100897.84;5073823;28;20044;-85
2021/03/29 08:16:09;;;;;;;9.50;2.58;;;;;;;13.87;52.38;100902.63;5073829;28;20056;-84
2021/03/29 08:19:24;;;;;;;9.15;3.28;;;;;;;13.87;51.03;100897.34;5072450;28;20052;-85
2021/03/29 08:21:57;;;;;;;10.25;2.78;;;;;;;13.97;52.19;100891.59;5072233;28;20055;-84
2021/03/29 08:24:26;;;;;;;9.32;3.30;;;;;;;14.02;50.57;100887.72;5073331;28;20061;-85
2021/03/29 08:26:58;;;;;;;8.15;3.03;;;;;;;14.07;51.37;100892.81;5074240;28;20044;-84
2021/03/29 08:29:29;;;;;;;8.07;2.90;;;;;;;14.13;51.05;100892.47;5073323;28;20044;-84
2021/03/29 08:32:04;;;;;;;15.23;3.53;;;;;;;14.20;52.68;100895.63;5073846;28;20061;-84
2021/03/29 08:34:55;;;;;;;8.18;2.92;;;;;;;14.26;51.50;100905.03;5073969;28;20045;-84
2021/03/29 08:37:28;;;;;;;12.68;3.03;;;;;;;14.28;48.59;100879.34;5074256;28;20402;-85
2021/03/29 08:39:57;;;;;;;10.77;3.53;;;;;;;14.37;49.49;100923.88;5074144;28;20052;-84
2021/03/29 08:42:31;;;;;;;7.63;2.70;;;;;;;14.41;50.55;100890.97;5073844;28;20052;-85
2021/03/29 08:45:04;;;;;;;10.25;3.00;;;;;;;14.45;49.71;100892.50;5074282;28;20048;-84
2021/03/29 08:47:30;;;;;;;10.68;3.42;;;;;;;14.51;51.20;100893.97;5072946;28;20060;-84
2021/03/29 08:50:04;;;;;;;9.35;3.10;;;;;;;14.53;50.83;100892.09;5072336;28;20056;-84
2021/03/29 08:52:41;;;;;;;13.50;2.95;;;;;;;14.58;50.43;100910.38;5072774;28;20053;-85
2021/03/29 08:55:09;;;;;;;13.80;3.13;;;;;;;14.65;49.82;100895.84;5073584;28;20059;-84
2021/03/29 08:57:35;;;;;;;9.93;3.17;;;;;;;14.70;50.12;100892.94;5072807;28;20052;-84
2021/03/29 09:00:11;;;;;;;9.63;3.33;;;;;;;14.71;48.73;100910.53;5074878;28;20505;-84
2021/03/29 09:02:38;;;;;;;8.57;3.13;;;;;;;14.78;49.54;100897.84;5073859;28;20059;-84
2021/03/29 09:05:06;;;;;;;10.93;3.25;;;;;;;14.80;49.46;100898.63;5072023;28;20051;-84
2021/03/29 09:07:40;;;;;;;7.70;3.05;;;;;;;14.86;50.00;100903.56;5073434;28;20044;-85
2021/03/29 09:10:16;;;;;;;9.43;2.92;;;;;;;14.91;49.53;100912.09;5073748;28;20053;-84
2021/03/29 09:12:44;;;;;;;13.07;2.80;;;;;;;15.00;50.41;100905.44;5072550;28;20044;-84
2021/03/29 09:15:15;;;;;;;8.77;3.20;;;;;;;15.04;49.27;100917.56;5073132;28;20486;-85
2021/03/29 09:17:42;;;;;;;8.77;3.35;;;;;;;15.14;49.12;100925.00;5072832;28;20054;-84
2021/03/29 09:20:41;;;;;;;10.25;3.10;;;;;;;15.15;47.61;100930.22;5072792;28;20417;-84
2021/03/29 09:23:09;;;;;;;11.40;3.20;;;;;;;15.24;49.03;100926.16;5072870;28;20048;-85
2021/03/29 09:25:40;;;;;;;11.35;3.33;;;;;;;15.27;48.68;100930.44;5072212;28;20044;-85
2021/03/29 09:29:00;;;;;;;8.02;3.22;;;;;;;15.31;48.44;100929.31;5073444;28;20056;-84
2021/03/29 09:31:20;;;;;;;9.57;3.50;;;;;;;15.39;48.68;100928.88;5070984;28;20045;-84
2021/03/29 09:33:47;;;;;;;6.47;3.05;;;;;;;15.48;49.45;100925.69;5075746;28;20048;-84
2021/03/29 09:36:17;;;;;;;10.20;3.10;;;;;;;15.57;49.53;100934.88;5075573;28;20057;-84
2021/03/29 09:38:48;;;;;;;9.75;3.50;;;;;;;15.66;49.48;100934.31;5076988;28;20053;-84
2021/03/29 09:41:22;;;;;;;13.48;3.70;;;;;;;15.73;48.99;100930.38;5077028;28;20496;-85
2021/03/29 09:43:53;;;;;;;10.02;3.67;;;;;;;15.83;49.01;100945.75;5077117;28;20508;-84
2021/03/29 09:46:31;;;;;;;9.25;3.53;;;;;;;15.89;49.15;100940.91;5115973;22;20055;-86
2021/03/29 09:49:08;;;;;;;11.43;3.42;;;;;;;15.95;47.80;100953.00;5076524;28;20099;-85
2021/03/29 09:51:35;;;;;;;7.20;3.28;;;;;;;16.04;48.45;100948.94;5076207;28;20063;-86
2021/03/29 09:54:23;;;;;;;15.55;3.33;;;;;;;16.06;48.10;100930.25;5075982;28;20512;-86
2021/03/29 09:56:50;;;;;;;9.98;3.35;;;;;;;16.17;48.38;100948.16;5076320;28;20059;-85
2021/03/29 09:59:28;;;;;;;15.73;3.65;;;;;;;16.21;47.72;100953.22;5075125;28;20493;-85
2021/03/29 10:01:54;;;;;;;6.93;3.30;;;;;;;16.31;48.16;100947.31;5075065;28;20044;-86
2021/03/29 10:04:22;;;;;;;8.75;3.10;;;;;;;16.38;48.44;100943.34;5075982;28;20044;-86
2021/03/29 10:06:54;;;;;;;10.82;3.85;;;;;;;16.42;46.69;100947.53;5075006;28;20048;-86
2021/03/29 10:09:57;;;;;;;7.93;3.45;;;;;;;16.44;45.60;100956.22;5074882;28;20135;-86
2021/03/29 10:12:25;;;;;;;10.30;3.30;;;;;;;16.57;47.04;100939.50;5069513;28;20059;-85
2021/03/29 10:15:04;;;;;;;13.32;4.25;;;;;;;16.60;45.56;100960.59;5074705;28;20052;-85
2021/03/29 10:17:30;;;;;;;8.20;3.05;;;;;;;16.71;47.19;100952.78;5075900;28;20056;-85
2021/03/29 10:20:07;;;;;;;6.88;3.15;;;;;;;16.77;47.40;100967.50;5075925;28;20059;-85
2021/03/29 10:22:33;;;;;;;7.90;3.28;;;;;;;16.87;47.51;100952.66;5075634;28;20508;-85
2021/03/29 10:25:03;;;;;;;11.05;3.80;;;;;;;16.97;48.04;100947.59;5075355;28;20051;-85
2021/03/29 10:27:45;;;;;;;10.85;3.90;;;;;;;17.04;47.13;100954.25;5075624;28;20493;-85
2021/03/29 10:30:33;;;;;;;9.63;3.08;;;;;;;17.20;47.04;100947.94;5075855;28;20070;-85
2021/03/29 10:33:02;;;;;;;5.75;2.90;;;;;;;17.35;47.16;100954.06;5074533;28;20055;-86
2021/03/29 10:35:30;;;;;;;6.60;2.92;;;;;;;17.49;47.68;100961.09;5074263;28;20059;-86
2021/03/29 10:38:02;;;;;;;9.68;3.05;;;;;;;17.62;46.80;100957.59;5074314;28;20045;-86
2021/03/29 10:40:29;;;;;;;8.63;3.28;;;;;;;17.71;46.48;100959.63;5074416;28;20060;-85
2021/03/29 10:42:55;;;;;;;9.02;3.20;;;;;;;17.80;46.07;100956.34;5074910;28;20479;-86
2021/03/29 10:45:21;;;;;;;7.97;3.38;;;;;;;17.87;45.74;100959.44;5073761;28;20040;-85
2021/03/29 10:47:48;;;;;;;8.38;3.38;;;;;;;17.92;44.69;100953.81;5075702;28;20051;-85
2021/03/29 10:50:17;;;;;;;8.18;2.88;;;;;;;17.96;44.89;100953.50;5075448;28;20061;-86
2021/03/29 10:52:43;;;;;;;9.45;3.10;;;;;;;18.04;45.31;100954.75;5073994;28;20055;-85
2021/03/29 10:55:25;;;;;;;6.45;2.80;;;;;;;18.08;44.79;100972.28;5074823;28;20074;-85
2021/03/29 10:58:03;;;;;;;9.73;3.00;;;;;;;18.18;44.31;100959.16;5075214;28;20048;-85
2021/03/29 11:00:36;;;;;;;6.78;3.22;;;;;;;18.27;43.87;100985.16;5074175;28;20067;-85
2021/03/29 11:03:03;;;;;;;9.07;3.28;;;;;;;18.36;44.50;100957.84;5074983;28;20059;-84
2021/03/29 11:05:29;;;;;;;9.32;2.85;;;;;;;18.46;43.95;100963.38;5075057;28;20055;-84
2021/03/29 11:07:55;;;;;;;6.47;3.05;;;;;;;18.58;44.58;100958.16;5075308;28;20075;-83
2021/03/29 11:10:21;;;;;;;6.13;2.83;;;;;;;18.74;44.80;100965.91;5075000;28;20049;-84
2021/03/29 11:12:47;;;;;;;8.02;3.05;;;;;;;18.95;44.03;100960.81;5074937;28;20044;-83
2021/03/29 11:15:14;;;;;;;8.55;3.47;;;;;;;19.22;45.16;100949.06;5074818;28;20052;-84
2021/03/29 11:17:40;;;;;;;6.85;3.10;;;;;;;19.57;44.24;100955.41;5074994;28;20443;-84
2021/03/29 11:20:07;;;;;;;11.60;3.35;;;;;;;20.00;44.27;100969.13;5073729;28;20048;-84
2021/03/29 11:22:33;;;;;;;6.28;3.30;;;;;;;20.47;42.65;100974.38;5073887;28;20056;-84
2021/03/29 11:25:00;;;;;;;7.88;2.97;;;;;;;21.00;42.60;100966.66;5073122;28;20044;-84
2021/03/29 11:27:26;;;;;;;9.45;3.17;;;;;;;21.46;41.84;100960.13;5074922;28;20052;-85
2021/03/29 11:29:52;;;;;;;8.13;2.78;;;;;;;21.98;41.67;100974.63;5073335;28;20052;-84
2021/03/29 11:32:19;;;;;;;6.88;2.95;;;;;;;22.44;39.72;100974.25;5073674;28;20064;-84
2021/03/29 11:34:45;;;;;;;7.40;2.88;;;;;;;22.89;39.10;100964.94;5074317;28;20048;-84
2021/03/29 11:37:11;;;;;;;6.32;2.95;;;;;;;23.30;37.99;100968.34;5074816;28;20056;-84